createdAt,value
2022-10-11T00:06:26.327Z,18.50
2022-10-11T00:16:32.015Z,13.60
2022-10-11T00:26:37.618Z,13.80
2022-10-11T00:36:43.233Z,13.70
2022-10-11T00:46:56.226Z,12.80
2022-10-11T00:57:06.405Z,12.80
2022-10-11T01:07:12.911Z,14.50
2022-10-11T01:17:25.918Z,12.40
2022-10-11T01:27:50.739Z,13.00
2022-10-11T01:38:04.018Z,16.70
2022-10-11T01:48:12.427Z,12.80
2022-10-11T01:58:32.740Z,15.50
2022-10-11T02:08:46.242Z,11.60
2022-10-11T02:18:56.812Z,13.80
2022-10-11T02:29:05.282Z,11.60
2022-10-11T02:39:19.675Z,13.60
2022-10-11T02:49:27.409Z,11.40
2022-10-11T02:59:33.044Z,13.60
2022-10-11T03:09:38.894Z,11.60
2022-10-11T03:19:44.638Z,10.50
2022-10-11T03:29:50.388Z,11.10
2022-10-11T03:39:56.151Z,19.30
2022-10-11T03:50:01.852Z,15.70
2022-10-11T04:00:10.290Z,12.00
2022-10-11T04:10:15.870Z,15.70
2022-10-11T04:20:21.558Z,28.10
2022-10-11T04:30:27.142Z,15.30
2022-10-11T04:40:32.800Z,18.00
2022-10-11T04:50:38.694Z,20.00
2022-10-11T05:00:44.478Z,19.20
2022-10-11T05:10:58.764Z,21.90
2022-10-11T05:21:06.821Z,21.10
2022-10-11T05:31:12.883Z,28.30
2022-10-11T05:41:18.671Z,18.20
2022-10-11T05:51:24.304Z,17.90
2022-10-11T06:01:30.608Z,13.40
2022-10-11T06:11:36.326Z,17.10
2022-10-11T06:21:41.950Z,19.30
2022-10-11T06:31:48.777Z,16.20
2022-10-11T06:41:54.341Z,11.30
2022-10-11T06:52:00.166Z,16.40
2022-10-11T07:02:05.753Z,12.90
2022-10-11T07:12:11.866Z,15.20
2022-10-11T07:22:17.541Z,20.50
2022-10-11T07:32:23.157Z,14.20
2022-10-11T07:42:28.913Z,14.90
2022-10-11T07:52:35.950Z,12.90
2022-10-11T08:02:41.573Z,9.50
2022-10-11T08:12:49.578Z,9.90
2022-10-11T08:22:55.190Z,8.90
2022-10-11T08:33:03.043Z,8.60
2022-10-11T08:43:26.877Z,7.10
2022-10-11T08:53:45.652Z,4.10
2022-10-11T09:03:52.227Z,4.00
2022-10-11T09:14:27.739Z,3.50
2022-10-11T09:24:47.427Z,3.50
2022-10-11T09:34:59.603Z,3.30
2022-10-11T09:45:15.612Z,3.80
2022-10-11T09:55:36.790Z,5.70
2022-10-11T10:05:42.481Z,5.70
2022-10-11T10:15:50.907Z,2.10
2022-10-11T10:26:13.395Z,4.20
2022-10-11T10:36:25.464Z,5.40
2022-10-11T10:46:46.569Z,3.00
2022-10-11T10:56:57.238Z,5.10
2022-10-11T11:07:14.371Z,4.70
2022-10-11T11:17:31.897Z,2.30
2022-10-11T11:27:51.784Z,4.50
2022-10-11T11:38:06.354Z,4.20
2022-10-11T11:48:19.653Z,3.30
2022-10-11T11:58:36.863Z,4.10
2022-10-11T12:08:45.611Z,2.30
2022-10-11T12:19:00.618Z,4.70
2022-10-11T12:29:43.424Z,6.60
2022-10-11T12:39:54.909Z,6.00
2022-10-11T12:50:14.292Z,3.70
2022-10-11T13:00:26.301Z,5.50
2022-10-11T13:10:36.968Z,3.70
2022-10-11T13:20:43.035Z,2.40
2022-10-11T13:30:52.330Z,2.40
2022-10-11T13:40:59.543Z,2.20
2022-10-11T13:51:09.968Z,5.10
2022-10-11T14:01:23.294Z,6.80
2022-10-11T14:11:40.276Z,6.30
2022-10-11T14:21:53.928Z,5.20
2022-10-11T14:32:03.973Z,7.30
2022-10-11T14:42:10.375Z,1.60
2022-10-11T14:52:16.312Z,2.40
2022-10-11T15:02:21.918Z,4.00
2022-10-11T15:12:27.582Z,4.70
2022-10-11T15:22:33.280Z,7.10
2022-10-11T15:32:38.937Z,6.80
2022-10-11T15:42:44.822Z,2.60
2022-10-11T15:52:50.724Z,5.50
2022-10-11T16:02:57.559Z,6.50
2022-10-11T16:13:03.290Z,6.10
2022-10-11T16:23:09.643Z,6.80
2022-10-11T16:33:15.642Z,8.60
2022-10-11T16:43:21.391Z,9.80
2022-10-11T16:53:27.347Z,9.40
2022-10-11T17:03:32.961Z,14.00
2022-10-11T17:13:38.626Z,13.60
2022-10-11T17:23:45.096Z,26.20
2022-10-11T17:33:50.707Z,24.60
2022-10-11T17:43:56.375Z,19.00
2022-10-11T17:54:02.151Z,26.20
2022-10-11T18:04:10.197Z,64.10
2022-10-11T18:14:16.211Z,42.20
2022-10-11T18:24:21.832Z,51.10
2022-10-11T18:34:27.500Z,48.10
2022-10-11T18:44:33.351Z,56.80
2022-10-11T18:54:39.064Z,68.40
2022-10-11T19:04:44.655Z,85.50
2022-10-11T19:14:50.562Z,68.00
2022-10-11T19:24:56.401Z,75.00
2022-10-11T19:35:02.248Z,73.70
2022-10-11T19:45:10.061Z,62.20
2022-10-11T20:05:20.850Z,82.60
2022-10-11T20:15:26.485Z,78.90
2022-10-11T20:25:32.313Z,63.60
2022-10-11T20:35:38.115Z,86.00
2022-10-11T20:45:43.922Z,92.20
2022-10-11T20:55:50.046Z,73.00
2022-10-11T21:06:01.606Z,79.20
2022-10-11T21:16:10.856Z,86.10
2022-10-11T21:26:18.348Z,86.00
2022-10-11T21:47:04.790Z,97.90
2022-10-11T21:56:56.539Z,87.70
2022-10-11T22:07:02.299Z,84.00
2022-10-11T22:17:07.977Z,88.70
2022-10-11T22:27:14.083Z,90.90
2022-10-11T22:37:19.638Z,86.50
2022-10-11T22:47:25.657Z,88.90
2022-10-11T22:57:31.284Z,89.60
2022-10-11T23:07:37.384Z,84.90
2022-10-11T23:17:43.665Z,81.70
2022-10-11T23:27:49.256Z,87.80
2022-10-11T23:37:56.669Z,81.00
2022-10-11T23:48:02.299Z,84.00
2022-10-11T23:58:08.068Z,74.30
